Time;durP1;ratioP1;P1;durP2;ratioP2;P2;SDS_P1;SDS_P2;PMS_P1;PMS_P2;Temp;Humidity;BMP_temperature;BMP_pressure;BME280_temperature;BME280_humidity;BME280_pressure;Samples;Min_cycle;Max_cycle;Signal;HPM_P1;HPM_P2
2022/01/14 00:02:17;;;;;;;;;;;5.50;99.90;;;;;;5099812;28;19943;-76
2022/01/14 00:04:42;;;;;;;;;;;5.50;99.90;;;;;;5099643;28;20377;-76
2022/01/14 00:07:08;;;;;;;;;;;5.50;99.90;;;;;;5099942;28;19923;-76
2022/01/14 00:09:35;;;;;;;;;;;5.40;99.90;;;;;;5099741;28;20428;-76
2022/01/14 00:12:04;;;;;;;;;;;5.40;99.90;;;;;;5099844;28;20006;-76
2022/01/14 00:14:41;;;;;;;;;;;5.40;99.90;;;;;;5099023;28;20006;-76
2022/01/14 00:17:08;;;;;;;;;;;5.40;99.90;;;;;;5098884;28;19977;-76
2022/01/14 00:19:34;;;;;;;;;;;5.40;99.90;;;;;;5099073;28;19950;-75
2022/01/14 00:22:05;;;;;;;;;;;5.40;99.90;;;;;;5099238;28;19931;-76
2022/01/14 00:31:38;;;;;;;;;;;5.40;99.90;;;;;;5098838;28;20007;-76
2022/01/14 00:32:58;;;;;;;;;;;5.40;99.90;;;;;;5151886;27;19952;-75
2022/01/14 00:35:24;;;;;;;;;;;5.40;99.90;;;;;;5097215;28;19924;-75
2022/01/14 00:37:50;;;;;;;;;;;5.40;99.90;;;;;;5097423;28;19942;-75
2022/01/14 00:40:15;;;;;;;;;;;5.40;99.90;;;;;;5130785;27;20305;-75
2022/01/14 00:42:41;;;;;;;;;;;5.40;99.90;;;;;;5097188;28;19989;-74
2022/01/14 00:45:07;;;;;;;;;;;5.40;99.90;;;;;;5113895;28;19927;-75
2022/01/14 00:47:34;;;;;;;;;;;5.40;99.90;;;;;;5097077;28;19920;-76
2022/01/14 00:50:00;;;;;;;;;;;5.30;99.90;;;;;;5131245;27;19920;-76
2022/01/14 00:52:26;;;;;;;;;;;5.40;99.90;;;;;;5097154;28;19934;-75
2022/01/14 00:54:51;;;;;;;;;;;5.40;99.90;;;;;;5096930;28;19926;-75
2022/01/14 00:57:29;;;;;;;;;;;5.30;99.90;;;;;;5096897;28;19971;-75
2022/01/14 00:59:54;;;;;;;;;;;5.40;99.90;;;;;;5097145;28;19927;-75
2022/01/14 01:02:20;;;;;;;;;;;5.30;99.90;;;;;;5096820;28;19919;-75
2022/01/14 01:04:46;;;;;;;;;;;5.30;99.90;;;;;;5096250;28;19924;-74
2022/01/14 01:07:12;;;;;;;;;;;5.30;99.90;;;;;;5096298;28;20328;-75
2022/01/14 01:09:41;;;;;;;;;;;5.30;99.90;;;;;;5097008;28;19923;-76
2022/01/14 01:14:41;;;;;;;;;;;5.30;99.90;;;;;;5113916;28;20006;-75
2022/01/14 01:17:07;;;;;;;;;;;5.30;99.90;;;;;;5096375;28;19930;-75
2022/01/14 01:19:33;;;;;;;;;;;5.30;99.90;;;;;;5097227;28;19962;-75
2022/01/14 01:21:58;;;;;;;;;;;5.30;99.90;;;;;;5096899;28;20377;-75
2022/01/14 01:24:24;;;;;;;;;;;5.30;99.90;;;;;;5096659;28;20339;-74
2022/01/14 01:26:51;;;;;;;;;;;5.30;99.90;;;;;;5096055;28;20344;-75
2022/01/14 01:29:32;;;;;;;;;;;5.30;99.90;;;;;;5096612;28;19920;-76
2022/01/14 01:31:58;;;;;;;;;;;5.30;99.90;;;;;;5096986;28;20024;-75
2022/01/14 01:34:25;;;;;;;;;;;5.30;99.90;;;;;;5096066;28;19924;-76
2022/01/14 01:36:52;;;;;;;;;;;5.30;99.90;;;;;;5095917;28;19970;-74
2022/01/14 01:39:19;;;;;;;;;;;5.30;99.90;;;;;;5096069;28;19924;-75
2022/01/14 01:41:47;;;;;;;;;;;5.30;99.90;;;;;;5130679;27;20049;-75
2022/01/14 01:44:14;;;;;;;;;;;5.30;99.90;;;;;;5096093;28;20386;-75
2022/01/14 01:46:42;;;;;;;;;;;5.30;99.90;;;;;;5096007;28;19919;-75
2022/01/14 01:49:09;;;;;;;;;;;5.30;99.90;;;;;;5096118;28;19924;-75
2022/01/14 01:51:35;;;;;;;;;;;5.40;99.90;;;;;;5096077;28;19920;-75
2022/01/14 01:54:01;;;;;;;;;;;5.30;99.90;;;;;;5095338;28;19919;-75
2022/01/14 01:56:26;;;;;;;;;;;5.30;99.90;;;;;;5095857;28;19931;-75
2022/01/14 01:58:53;;;;;;;;;;;5.30;99.90;;;;;;5096311;28;20443;-75
2022/01/14 02:01:18;;;;;;;;;;;5.30;99.90;;;;;;5095902;28;20426;-75
2022/01/14 02:03:44;;;;;;;;;;;5.40;99.90;;;;;;5095656;28;19919;-75
2022/01/14 02:06:10;;;;;;;;;;;5.30;99.90;;;;;;5129759;27;19923;-75
2022/01/14 02:08:36;;;;;;;;;;;5.30;99.90;;;;;;5095704;28;19920;-75
2022/01/14 02:11:01;;;;;;;;;;;5.40;99.90;;;;;;5095685;28;19928;-74
2022/01/14 02:13:27;;;;;;;;;;;5.40;99.90;;;;;;5095810;28;19969;-75
2022/01/14 02:18:31;;;;;;;;;;;5.30;99.90;;;;;;5112419;28;19919;-75
2022/01/14 02:23:47;;;;;;;;;;;5.40;99.90;;;;;;5112678;28;20271;-75
2022/01/14 02:26:13;;;;;;;;;;;5.30;99.90;;;;;;5095300;28;20022;-75
2022/01/14 02:28:40;;;;;;;;;;;5.30;99.90;;;;;;5095457;28;19928;-75
2022/01/14 02:31:06;;;;;;;;;;;5.30;99.90;;;;;;5095292;28;20018;-75
2022/01/14 02:33:32;;;;;;;;;;;5.30;99.90;;;;;;5095354;28;19992;-74
2022/01/14 02:35:59;;;;;;;;;;;5.40;99.90;;;;;;5095100;28;19982;-75
2022/01/14 02:38:24;;;;;;;;;;;5.30;99.90;;;;;;5094970;28;19920;-74
2022/01/14 02:40:50;;;;;;;;;;;5.40;99.90;;;;;;5095474;28;19927;-75
2022/01/14 02:43:17;;;;;;;;;;;5.30;99.90;;;;;;5094867;28;20297;-75
2022/01/14 02:45:50;;;;;;;;;;;5.30;99.90;;;;;;5095068;28;20270;-74
2022/01/14 02:48:16;;;;;;;;;;;5.40;99.90;;;;;;5094678;28;19946;-75
2022/01/14 02:50:54;;;;;;;;;;;5.30;99.90;;;;;;5094966;28;19920;-75
2022/01/14 02:53:26;;;;;;;;;;;5.40;99.90;;;;;;5094629;28;20010;-75
2022/01/14 02:55:53;;;;;;;;;;;5.40;99.90;;;;;;5111868;28;20523;-75
2022/01/14 02:58:19;;;;;;;;;;;5.40;99.90;;;;;;5094608;28;19989;-75
2022/01/14 03:00:45;;;;;;;;;;;5.40;99.90;;;;;;5094712;28;19920;-75
2022/01/14 03:03:11;;;;;;;;;;;5.30;99.90;;;;;;5094605;28;19927;-75
2022/01/14 03:05:37;;;;;;;;;;;5.40;99.90;;;;;;5094862;28;20366;-75
2022/01/14 03:08:02;;;;;;;;;;;5.40;99.90;;;;;;5094683;28;19919;-75
2022/01/14 03:10:29;;;;;;;;;;;5.30;99.90;;;;;;5095935;28;20274;-76
2022/01/14 03:12:54;;;;;;;;;;;5.30;99.90;;;;;;5111519;28;19924;-75
2022/01/14 03:15:20;;;;;;;;;;;5.40;99.90;;;;;;5094464;28;19919;-75
2022/01/14 03:17:46;;;;;;;;;;;5.40;99.90;;;;;;5094757;28;20035;-75
2022/01/14 03:20:27;;;;;;;;;;;5.40;99.90;;;;;;5094601;28;20392;-75
2022/01/14 03:23:03;;;;;;;;;;;5.40;99.90;;;;;;5094213;28;19924;-75
2022/01/14 03:25:47;;;;;;;;;;;5.30;99.90;;;;;;5093981;28;19963;-74
2022/01/14 03:28:13;;;;;;;;;;;5.30;99.90;;;;;;5094403;28;20276;-75
2022/01/14 03:30:39;;;;;;;;;;;5.30;99.90;;;;;;5094856;28;19973;-75
2022/01/14 03:33:05;;;;;;;;;;;5.40;99.90;;;;;;5094081;28;20488;-75
2022/01/14 03:35:31;;;;;;;;;;;5.30;99.90;;;;;;5094305;28;19979;-75
2022/01/14 03:37:59;;;;;;;;;;;5.30;99.90;;;;;;5110334;28;21951;-75
2022/01/14 03:40:26;;;;;;;;;;;5.30;99.90;;;;;;5093893;28;20362;-75
2022/01/14 03:42:52;;;;;;;;;;;5.30;99.90;;;;;;5110914;28;19920;-74
2022/01/14 03:45:18;;;;;;;;;;;5.20;99.90;;;;;;5094063;28;19920;-75
2022/01/14 03:47:44;;;;;;;;;;;5.20;99.90;;;;;;5093808;28;19919;-75
2022/01/14 03:50:10;;;;;;;;;;;5.20;99.90;;;;;;5094970;28;19919;-74
2022/01/14 03:52:36;;;;;;;;;;;5.30;99.90;;;;;;5124836;27;19950;-76
2022/01/14 03:55:02;;;;;;;;;;;5.30;99.90;;;;;;5107652;28;20015;-74
2022/01/14 03:57:27;;;;;;;;;;;5.20;99.90;;;;;;5081163;28;19938;-74
2022/01/14 03:59:53;;;;;;;;;;;5.20;99.90;;;;;;5128488;27;19920;-74
2022/01/14 04:02:19;;;;;;;;;;;5.30;99.90;;;;;;5094159;28;19927;-74
2022/01/14 04:04:44;;;;;;;;;;;5.20;99.90;;;;;;5093668;28;19920;-75
2022/01/14 04:07:10;;;;;;;;;;;5.30;99.90;;;;;;5093623;28;20007;-74
2022/01/14 04:09:39;;;;;;;;;;;5.20;99.90;;;;;;5094535;28;19995;-75
2022/01/14 04:12:08;;;;;;;;;;;5.20;99.90;;;;;;5111695;28;20022;-75
2022/01/14 04:17:01;;;;;;;;;;;5.20;99.90;;;;;;5110674;28;19927;-75
2022/01/14 04:19:27;;;;;;;;;;;5.20;99.90;;;;;;5094006;28;20382;-75
2022/01/14 04:21:55;;;;;;;;;;;5.20;99.90;;;;;;5110913;28;20378;-75
2022/01/14 04:24:21;;;;;;;;;;;5.20;99.90;;;;;;5094298;28;19920;-75
2022/01/14 04:26:47;;;;;;;;;;;5.20;99.90;;;;;;5093987;28;20378;-75
2022/01/14 04:29:13;;;;;;;;;;;5.20;99.90;;;;;;5093968;28;20003;-75
2022/01/14 04:31:38;;;;;;;;;;;5.20;99.90;;;;;;5094304;28;20439;-75
2022/01/14 04:34:04;;;;;;;;;;;5.20;99.90;;;;;;5094068;28;19973;-75
2022/01/14 04:36:29;;;;;;;;;;;5.20;99.90;;;;;;5111232;28;20053;-75
2022/01/14 04:38:55;;;;;;;;;;;5.20;99.90;;;;;;5094932;28;19947;-75
2022/01/14 04:41:20;;;;;;;;;;;5.20;99.90;;;;;;5097533;28;19919;-75
2022/01/14 04:43:46;;;;;;;;;;;5.10;99.90;;;;;;5131748;27;19971;-76
2022/01/14 04:48:37;;;;;;;;;;;5.20;99.90;;;;;;5114280;28;19919;-75
2022/01/14 04:51:05;;;;;;;;;;;5.20;99.90;;;;;;5097586;28;19920;-76
2022/01/14 04:53:31;;;;;;;;;;;5.20;99.90;;;;;;5097643;28;19920;-75
2022/01/14 04:55:56;;;;;;;;;;;5.20;99.90;;;;;;5096979;28;19938;-75
2022/01/14 04:58:22;;;;;;;;;;;5.20;99.90;;;;;;5097084;28;19920;-76
2022/01/14 05:00:48;;;;;;;;;;;5.20;99.90;;;;;;5097425;28;19926;-76
2022/01/14 05:03:14;;;;;;;;;;;5.20;99.90;;;;;;5105146;28;19999;-75
2022/01/14 05:05:43;;;;;;;;;;;5.10;99.90;;;;;;5094196;28;20467;-75
2022/01/14 05:08:19;;;;;;;;;;;5.10;99.90;;;;;;5139756;27;19972;-75
2022/01/14 05:13:19;;;;;;;;;;;5.20;99.90;;;;;;5114262;28;19968;-75
2022/01/14 05:15:45;;;;;;;;;;;5.10;99.90;;;;;;5097277;28;19923;-76
2022/01/14 05:18:11;;;;;;;;;;;5.10;99.90;;;;;;5096913;28;19927;-75
2022/01/14 05:20:36;;;;;;;;;;;5.10;99.90;;;;;;5097598;28;19927;-75
2022/01/14 05:23:02;;;;;;;;;;;5.10;99.90;;;;;;5097244;28;20030;-76
2022/01/14 05:25:28;;;;;;;;;;;5.20;99.90;;;;;;5097611;28;20158;-76
2022/01/14 05:27:53;;;;;;;;;;;5.10;99.90;;;;;;5131271;27;20003;-75
2022/01/14 05:30:19;;;;;;;;;;;5.20;99.90;;;;;;5097176;28;19972;-76
2022/01/14 05:32:52;;;;;;;;;;;5.10;99.90;;;;;;5100210;28;19927;-76
2022/01/14 05:35:25;;;;;;;;;;;5.20;99.90;;;;;;5134873;27;19920;-75
2022/01/14 05:37:51;;;;;;;;;;;5.20;99.90;;;;;;5100995;28;20045;-75
2022/01/14 05:40:17;;;;;;;;;;;5.20;99.90;;;;;;5101415;28;20040;-76
2022/01/14 05:42:43;;;;;;;;;;;5.10;99.90;;;;;;5098804;28;19959;-75
2022/01/14 05:45:10;;;;;;;;;;;5.20;99.90;;;;;;5096843;28;19919;-75
2022/01/14 05:47:35;;;;;;;;;;;5.20;99.90;;;;;;5096479;28;19931;-75
2022/01/14 05:50:03;;;;;;;;;;;5.20;99.90;;;;;;5096763;28;19919;-75
2022/01/14 05:52:28;;;;;;;;;;;5.20;99.90;;;;;;5113126;28;19928;-75
2022/01/14 05:54:55;;;;;;;;;;;5.20;99.90;;;;;;5096863;28;19919;-76
2022/01/14 05:57:20;;;;;;;;;;;5.20;99.90;;;;;;5113262;28;20373;-76
2022/01/14 05:59:49;;;;;;;;;;;5.20;99.90;;;;;;5130802;27;19946;-75
2022/01/14 06:02:15;;;;;;;;;;;5.20;99.90;;;;;;5131113;27;19926;-75
2022/01/14 06:04:42;;;;;;;;;;;5.20;99.90;;;;;;5113935;28;19920;-76
2022/01/14 06:07:09;;;;;;;;;;;5.20;99.90;;;;;;5097380;28;19920;-76
2022/01/14 06:09:35;;;;;;;;;;;5.20;99.90;;;;;;5096996;28;19926;-76
2022/01/14 06:12:00;;;;;;;;;;;5.20;99.90;;;;;;5096518;28;20317;-76
2022/01/14 06:14:26;;;;;;;;;;;5.20;99.90;;;;;;5095479;28;20333;-76
2022/01/14 06:16:52;;;;;;;;;;;5.10;99.90;;;;;;5096094;28;20008;-75
2022/01/14 06:19:17;;;;;;;;;;;5.20;99.90;;;;;;5096383;28;20397;-76
2022/01/14 06:21:43;;;;;;;;;;;5.20;99.90;;;;;;5097268;28;20363;-76
2022/01/14 06:24:08;;;;;;;;;;;5.20;99.90;;;;;;5096492;28;19920;-76
2022/01/14 06:26:34;;;;;;;;;;;5.20;99.90;;;;;;5147166;27;19959;-76
2022/01/14 06:29:00;;;;;;;;;;;5.20;99.90;;;;;;5130451;27;19920;-76
2022/01/14 06:31:25;;;;;;;;;;;5.20;99.90;;;;;;5096266;28;19927;-76
2022/01/14 06:33:51;;;;;;;;;;;5.20;99.90;;;;;;5113281;27;19919;-76
2022/01/14 06:36:16;;;;;;;;;;;5.20;99.90;;;;;;5096056;28;20336;-76
2022/01/14 06:38:42;;;;;;;;;;;5.20;99.90;;;;;;5113351;28;20015;-75
2022/01/14 06:41:08;;;;;;;;;;;5.20;99.90;;;;;;5095303;28;19926;-76
2022/01/14 06:43:33;;;;;;;;;;;5.20;99.90;;;;;;5095063;28;19923;-76
2022/01/14 06:45:59;;;;;;;;;;;5.20;99.90;;;;;;5095665;28;19935;-76
2022/01/14 06:48:25;;;;;;;;;;;5.10;99.90;;;;;;5112822;28;20043;-75
2022/01/14 06:50:51;;;;;;;;;;;5.20;99.90;;;;;;5095997;28;19927;-76
2022/01/14 06:53:16;;;;;;;;;;;5.10;99.90;;;;;;5096159;28;19919;-76
2022/01/14 06:55:42;;;;;;;;;;;5.20;99.90;;;;;;5095507;28;20393;-76
2022/01/14 06:58:07;;;;;;;;;;;5.20;99.90;;;;;;5095354;28;19919;-76
2022/01/14 07:00:34;;;;;;;;;;;5.10;99.90;;;;;;5095882;28;19924;-75
2022/01/14 07:03:00;;;;;;;;;;;5.20;99.90;;;;;;5111772;28;19919;-76
2022/01/14 07:05:25;;;;;;;;;;;5.20;99.90;;;;;;5129406;27;20004;-76
2022/01/14 07:07:51;;;;;;;;;;;5.20;99.90;;;;;;5095426;28;19920;-76
2022/01/14 07:10:17;;;;;;;;;;;5.20;99.90;;;;;;5129808;27;19969;-76
2022/01/14 07:12:43;;;;;;;;;;;5.20;99.90;;;;;;5095639;28;19989;-76
2022/01/14 07:15:10;;;;;;;;;;;5.20;99.90;;;;;;5112422;28;19926;-76
2022/01/14 07:17:36;;;;;;;;;;;5.10;99.90;;;;;;5129321;27;20409;-75
2022/01/14 07:20:07;;;;;;;;;;;5.20;99.90;;;;;;5095212;28;19971;-76
2022/01/14 07:22:33;;;;;;;;;;;5.20;99.90;;;;;;5095808;28;20276;-76
2022/01/14 07:24:59;;;;;;;;;;;5.20;99.90;;;;;;5096012;28;19926;-76
2022/01/14 07:27:24;;;;;;;;;;;5.20;99.90;;;;;;5145866;27;20373;-76
2022/01/14 07:29:50;;;;;;;;;;;5.20;99.90;;;;;;5095384;28;19965;-76
2022/01/14 07:32:16;;;;;;;;;;;5.20;99.90;;;;;;5094842;28;19981;-75
2022/01/14 07:34:41;;;;;;;;;;;5.30;99.90;;;;;;5095396;28;19920;-76
2022/01/14 07:37:07;;;;;;;;;;;5.20;99.90;;;;;;5095136;28;19924;-76
2022/01/14 07:39:32;;;;;;;;;;;5.20;99.90;;;;;;5111503;28;19942;-76
2022/01/14 07:41:58;;;;;;;;;;;5.20;99.90;;;;;;5129299;27;20396;-76
2022/01/14 07:44:24;;;;;;;;;;;5.30;99.90;;;;;;5129676;27;19927;-76
2022/01/14 07:46:49;;;;;;;;;;;5.30;99.90;;;;;;5128925;27;19919;-75
2022/01/14 07:49:15;;;;;;;;;;;5.30;99.90;;;;;;5129303;27;20451;-76
2022/01/14 07:51:41;;;;;;;;;;;5.30;99.90;;;;;;5095148;28;19920;-76
2022/01/14 07:54:07;;;;;;;;;;;5.30;99.90;;;;;;5095672;28;19920;-75
2022/01/14 07:56:33;;;;;;;;;;;5.30;99.90;;;;;;5111916;28;20426;-76
2022/01/14 07:58:58;;;;;;;;;;;5.30;99.90;;;;;;5111454;28;19919;-76
2022/01/14 08:01:24;;;;;;;;;;;5.30;99.90;;;;;;5094588;28;19926;-75
2022/01/14 08:03:50;;;;;;;;;;;5.30;99.90;;;;;;5094573;28;20073;-76
2022/01/14 08:06:17;;;;;;;;;;;5.30;99.90;;;;;;5095067;28;20393;-75
2022/01/14 08:08:43;;;;;;;;;;;5.40;99.90;;;;;;5094250;28;19926;-75
2022/01/14 08:11:08;;;;;;;;;;;5.40;99.90;;;;;;5094464;28;20352;-76
2022/01/14 08:13:34;;;;;;;;;;;5.40;99.90;;;;;;5096947;28;19964;-76
2022/01/14 08:16:00;;;;;;;;;;;5.40;99.90;;;;;;5115506;28;19972;-76
2022/01/14 08:18:25;;;;;;;;;;;5.40;99.90;;;;;;5132410;27;19949;-76
2022/01/14 08:20:51;;;;;;;;;;;5.40;99.90;;;;;;5132840;27;19924;-76
2022/01/14 08:23:19;;;;;;;;;;;5.40;99.90;;;;;;5098484;28;19920;-76
2022/01/14 08:25:44;;;;;;;;;;;5.50;99.90;;;;;;5098843;28;19926;-76
2022/01/14 08:28:10;;;;;;;;;;;5.50;99.90;;;;;;5096989;28;19924;-74
2022/01/14 08:30:35;;;;;;;;;;;5.50;99.90;;;;;;5115221;28;19923;-75
2022/01/14 08:33:01;;;;;;;;;;;5.60;99.90;;;;;;5114508;28;19919;-75
2022/01/14 08:35:27;;;;;;;;;;;5.70;99.90;;;;;;5116342;28;19927;-76
2022/01/14 08:37:52;;;;;;;;;;;5.60;99.90;;;;;;5109616;28;19946;-77
2022/01/14 08:40:18;;;;;;;;;;;5.60;99.90;;;;;;5100604;28;19920;-76
2022/01/14 08:42:47;;;;;;;;;;;5.60;99.90;;;;;;5097902;28;19920;-76
2022/01/14 08:45:18;;;;;;;;;;;5.70;99.90;;;;;;5097949;28;19943;-75
2022/01/14 08:47:43;;;;;;;;;;;5.70;99.90;;;;;;5111859;28;19931;-77
2022/01/14 08:50:09;;;;;;;;;;;5.70;99.90;;;;;;5131101;27;20006;-76
2022/01/14 08:52:34;;;;;;;;;;;5.70;99.90;;;;;;5097344;28;20425;-74
2022/01/14 08:55:00;;;;;;;;;;;5.70;99.90;;;;;;5097333;28;19920;-74
2022/01/14 08:57:25;;;;;;;;;;;5.80;99.90;;;;;;5114077;28;19928;-74
2022/01/14 08:59:51;;;;;;;;;;;5.80;99.90;;;;;;5096339;28;19919;-74
2022/01/14 09:02:21;;;;;;;;;;;5.80;99.90;;;;;;5104535;28;19920;-75
2022/01/14 09:04:46;;;;;;;;;;;5.80;99.90;;;;;;5115346;28;20368;-75
2022/01/14 09:07:12;;;;;;;;;;;5.90;99.90;;;;;;5122002;27;19959;-77
2022/01/14 09:09:38;;;;;;;;;;;5.80;99.90;;;;;;5095370;28;20275;-76
2022/01/14 09:12:03;;;;;;;;;;;5.90;99.90;;;;;;5110245;28;19920;-76
2022/01/14 09:14:29;;;;;;;;;;;6.00;99.90;;;;;;5075519;28;20283;-77
2022/01/14 09:16:56;;;;;;;;;;;6.00;99.90;;;;;;5104936;28;19949;-76
2022/01/14 09:19:21;;;;;;;;;;;6.00;99.90;;;;;;5096683;28;19920;-76
2022/01/14 09:21:47;;;;;;;;;;;5.90;99.90;;;;;;5130368;27;20014;-77
2022/01/14 09:24:13;;;;;;;;;;;6.00;99.90;;;;;;5096845;28;19920;-76
2022/01/14 09:26:39;;;;;;;;;;;6.10;99.90;;;;;;5130852;27;19964;-75
2022/01/14 09:29:06;;;;;;;;;;;6.10;99.90;;;;;;5148530;27;20373;-75
2022/01/14 09:31:31;;;;;;;;;;;6.10;99.90;;;;;;5116247;28;19923;-77
2022/01/14 09:33:57;;;;;;;;;;;6.20;99.90;;;;;;5105314;28;19940;-75
2022/01/14 09:36:26;;;;;;;;;;;6.20;99.90;;;;;;5130264;27;20016;-76
2022/01/14 09:38:52;;;;;;;;;;;6.30;99.90;;;;;;5096395;28;19982;-76
2022/01/14 09:41:18;;;;;;;;;;;6.30;99.90;;;;;;5130369;27;19919;-76
2022/01/14 09:43:44;;;;;;;;;;;6.30;99.90;;;;;;5096521;28;19939;-76
2022/01/14 09:46:11;;;;;;;;;;;6.40;99.90;;;;;;5096657;28;19919;-76
2022/01/14 09:48:39;;;;;;;;;;;6.40;99.90;;;;;;5113423;28;20016;-76
2022/01/14 09:51:08;;;;;;;;;;;6.40;99.90;;;;;;5097559;28;20008;-77
2022/01/14 09:53:37;;;;;;;;;;;6.50;99.90;;;;;;5096704;28;20301;-77
2022/01/14 09:56:02;;;;;;;;;;;6.50;99.90;;;;;;5113749;28;20022;-77
2022/01/14 09:58:34;;;;;;;;;;;6.60;99.90;;;;;;5097179;28;19967;-76
2022/01/14 10:01:10;;;;;;;;;;;6.60;99.90;;;;;;5130872;27;19949;-76
2022/01/14 10:03:46;;;;;;;;;;;6.60;99.90;;;;;;5096101;28;19947;-76
2022/01/14 10:06:11;;;;;;;;;;;6.70;99.90;;;;;;5131151;27;19919;-76
2022/01/14 10:08:37;;;;;;;;;;;6.70;99.90;;;;;;5114739;28;19919;-76
2022/01/14 10:11:04;;;;;;;;;;;6.70;99.90;;;;;;5096698;28;20293;-76
2022/01/14 10:13:30;;;;;;;;;;;6.80;99.90;;;;;;5130564;27;19947;-76
2022/01/14 10:16:01;;;;;;;;;;;6.80;99.90;;;;;;5096624;28;19928;-76
2022/01/14 10:18:27;;;;;;;;;;;6.90;99.90;;;;;;5096702;28;20014;-76
2022/01/14 10:20:57;;;;;;;;;;;7.00;99.90;;;;;;5130221;27;19962;-76
2022/01/14 10:23:39;;;;;;;;;;;6.90;99.90;;;;;;5113370;28;19920;-76
2022/01/14 10:26:05;;;;;;;;;;;6.90;99.90;;;;;;5130213;27;20516;-76
2022/01/14 10:28:30;;;;;;;;;;;7.00;99.90;;;;;;5130951;27;20062;-76
2022/01/14 10:30:56;;;;;;;;;;;7.00;99.90;;;;;;5096512;28;20275;-76
2022/01/14 10:33:28;;;;;;;;;;;7.10;99.90;;;;;;5130306;27;19919;-76
2022/01/14 10:35:54;;;;;;;;;;;7.10;99.90;;;;;;5093131;28;19924;-76
2022/01/14 10:38:22;;;;;;;;;;;7.10;99.90;;;;;;5130116;27;19930;-76
2022/01/14 10:40:53;;;;;;;;;;;7.10;99.90;;;;;;5111685;28;20293;-76
2022/01/14 10:43:22;;;;;;;;;;;7.20;99.90;;;;;;5094542;28;19959;-76
2022/01/14 10:45:48;;;;;;;;;;;7.20;99.90;;;;;;5111533;28;19927;-76
2022/01/14 10:48:28;;;;;;;;;;;7.20;99.90;;;;;;5112753;28;20228;-76
2022/01/14 10:50:55;;;;;;;;;;;7.20;99.90;;;;;;5130285;27;19926;-76
2022/01/14 10:53:35;;;;;;;;;;;7.30;99.90;;;;;;5088582;28;19935;-77
2022/01/14 10:56:06;;;;;;;;;;;7.30;99.90;;;;;;5090139;28;20414;-75
2022/01/14 10:58:32;;;;;;;;;;;7.40;99.90;;;;;;5113089;27;19934;-75
2022/01/14 11:01:02;;;;;;;;;;;7.40;99.90;;;;;;5107438;28;19920;-76
2022/01/14 11:03:32;;;;;;;;;;;7.30;99.90;;;;;;5095081;28;19920;-76
2022/01/14 11:06:17;;;;;;;;;;;7.40;99.90;;;;;;5093714;28;19920;-76
2022/01/14 11:08:43;;;;;;;;;;;7.40;99.90;;;;;;5140313;27;19920;-76
2022/01/14 11:11:09;;;;;;;;;;;7.40;99.90;;;;;;5129724;27;19927;-73
2022/01/14 11:13:35;;;;;;;;;;;7.40;99.90;;;;;;5129691;27;19920;-76
2022/01/14 11:16:01;;;;;;;;;;;7.50;99.90;;;;;;5111639;28;19947;-75
2022/01/14 11:18:27;;;;;;;;;;;7.50;99.90;;;;;;5111293;28;19920;-75
2022/01/14 11:23:41;;;;;;;;;;;7.50;99.90;;;;;;5100654;28;19952;-75
2022/01/14 11:26:08;;;;;;;;;;;7.50;99.90;;;;;;5094382;28;19919;-76
2022/01/14 11:28:36;;;;;;;;;;;7.60;99.90;;;;;;5128299;27;19920;-75
2022/01/14 11:31:28;;;;;;;;;;;7.60;99.90;;;;;;5094467;28;19920;-75
2022/01/14 11:33:54;;;;;;;;;;;7.60;99.90;;;;;;5107510;28;19949;-75
2022/01/14 11:36:21;;;;;;;;;;;7.60;99.90;;;;;;5094350;28;19924;-75
2022/01/14 11:38:47;;;;;;;;;;;7.50;99.90;;;;;;5111119;28;20461;-75
2022/01/14 11:41:15;;;;;;;;;;;7.60;99.90;;;;;;5111082;28;20393;-75
2022/01/14 11:43:42;;;;;;;;;;;7.60;99.90;;;;;;5093849;28;19924;-76
2022/01/14 11:46:11;;;;;;;;;;;7.60;99.90;;;;;;5094489;28;20374;-75
2022/01/14 11:48:39;;;;;;;;;;;7.60;99.90;;;;;;5128351;27;20385;-76
2022/01/14 11:51:06;;;;;;;;;;;7.60;99.90;;;;;;5094511;28;19919;-76
2022/01/14 11:53:36;;;;;;;;;;;7.60;99.90;;;;;;5093751;28;20386;-76
2022/01/14 11:56:04;;;;;;;;;;;7.60;99.90;;;;;;5126000;28;20006;-75
2022/01/14 11:58:33;;;;;;;;;;;7.50;99.90;;;;;;5144531;27;19935;-76
2022/01/14 12:01:01;;;;;;;;;;;7.50;99.90;;;;;;5128384;28;19920;-75
2022/01/14 12:03:30;;;;;;;;;;;7.50;99.90;;;;;;5094285;28;19926;-76
2022/01/14 12:05:55;;;;;;;;;;;7.40;99.90;;;;;;5093756;28;19928;-76
2022/01/14 12:08:24;;;;;;;;;;;7.40;99.90;;;;;;5110521;28;19920;-75
2022/01/14 12:10:53;;;;;;;;;;;7.40;99.90;;;;;;5094264;28;19920;-75
2022/01/14 12:16:36;;;;;;;;;;;7.40;99.90;;;;;;5093385;28;19928;-75
2022/01/14 12:19:02;;;;;;;;;;;7.40;99.90;;;;;;5089188;28;20429;-76
2022/01/14 12:21:37;;;;;;;;;;;7.40;99.90;;;;;;5094107;28;19927;-75
2022/01/14 12:24:27;;;;;;;;;;;7.40;99.90;;;;;;5093718;28;20409;-75
2022/01/14 12:26:53;;;;;;;;;;;7.30;99.90;;;;;;5100974;28;19927;-75
2022/01/14 12:29:33;;;;;;;;;;;7.40;99.90;;;;;;5093355;28;19920;-75
2022/01/14 12:32:06;;;;;;;;;;;7.30;99.90;;;;;;5079024;28;19920;-75
2022/01/14 12:34:37;;;;;;;;;;;7.30;99.90;;;;;;5107527;28;20293;-76
2022/01/14 12:37:03;;;;;;;;;;;7.30;99.90;;;;;;5084264;28;19932;-76
2022/01/14 12:39:32;;;;;;;;;;;7.30;99.90;;;;;;5104969;28;19919;-75
2022/01/14 12:42:00;;;;;;;;;;;7.30;99.90;;;;;;5093514;28;20377;-75
2022/01/14 12:44:29;;;;;;;;;;;7.30;99.90;;;;;;5094424;28;19919;-76
2022/01/14 12:47:05;;;;;;;;;;;7.20;99.90;;;;;;5127231;27;20137;-75
2022/01/14 12:49:35;;;;;;;;;;;7.30;99.90;;;;;;5111052;28;20058;-76
2022/01/14 12:52:01;;;;;;;;;;;7.30;99.90;;;;;;5076883;28;19927;-75
2022/01/14 12:54:34;;;;;;;;;;;7.30;99.90;;;;;;5107444;28;19920;-76
2022/01/14 12:57:01;;;;;;;;;;;7.30;99.90;;;;;;5096107;28;20018;-75
2022/01/14 12:59:36;;;;;;;;;;;7.30;99.90;;;;;;5094318;28;19924;-76
2022/01/14 13:02:04;;;;;;;;;;;7.40;99.90;;;;;;5131121;27;20397;-76
2022/01/14 13:04:33;;;;;;;;;;;7.40;99.90;;;;;;5131448;27;19923;-75
2022/01/14 13:07:03;;;;;;;;;;;7.40;99.90;;;;;;5130615;27;20012;-75
2022/01/14 13:09:44;;;;;;;;;;;7.40;99.90;;;;;;5131498;27;20033;-76
2022/01/14 13:12:14;;;;;;;;;;;7.40;99.90;;;;;;5098298;28;19926;-75
2022/01/14 13:14:51;;;;;;;;;;;7.40;99.90;;;;;;5131786;27;20047;-76
2022/01/14 13:17:18;;;;;;;;;;;7.40;99.90;;;;;;5131011;27;20301;-76
2022/01/14 13:19:46;;;;;;;;;;;7.40;99.90;;;;;;5097472;28;20008;-76
2022/01/14 13:22:13;;;;;;;;;;;7.40;99.90;;;;;;5096944;28;19927;-76
2022/01/14 13:24:40;;;;;;;;;;;7.40;99.90;;;;;;5096662;28;20390;-75
2022/01/14 13:27:07;;;;;;;;;;;7.40;99.90;;;;;;5096624;28;19924;-76
2022/01/14 13:29:41;;;;;;;;;;;7.30;99.90;;;;;;5113676;28;20271;-75
2022/01/14 13:32:09;;;;;;;;;;;7.30;99.90;;;;;;5095933;28;19962;-76
2022/01/14 13:34:36;;;;;;;;;;;7.40;99.90;;;;;;5127019;27;19928;-76
2022/01/14 13:37:02;;;;;;;;;;;7.30;99.90;;;;;;5098907;28;19944;-76
2022/01/14 13:39:28;;;;;;;;;;;7.30;99.90;;;;;;5096847;28;19923;-76
2022/01/14 13:41:56;;;;;;;;;;;7.30;99.90;;;;;;5096222;28;20349;-76
2022/01/14 13:44:25;;;;;;;;;;;7.20;99.90;;;;;;5096047;28;19973;-76
2022/01/14 13:46:56;;;;;;;;;;;7.30;99.90;;;;;;5096039;28;20369;-76
2022/01/14 13:49:22;;;;;;;;;;;7.20;99.90;;;;;;5096480;28;20386;-76
2022/01/14 13:52:09;;;;;;;;;;;7.20;99.90;;;;;;5096132;28;19942;-76
2022/01/14 13:54:38;;;;;;;;;;;7.20;99.90;;;;;;5095835;28;19926;-76
2022/01/14 13:57:09;;;;;;;;;;;7.20;99.90;;;;;;5095729;28;19924;-76
2022/01/14 13:59:40;;;;;;;;;;;7.10;99.90;;;;;;5085670;28;20289;-76
2022/01/14 14:02:10;;;;;;;;;;;7.10;99.90;;;;;;5130097;27;20298;-75
2022/01/14 14:04:44;;;;;;;;;;;7.10;99.90;;;;;;5111014;28;19924;-76
2022/01/14 14:07:15;;;;;;;;;;;7.00;99.90;;;;;;5104033;28;19920;-75
2022/01/14 14:10:01;;;;;;;;;;;7.10;99.90;;;;;;5129732;27;20011;-75
2022/01/14 14:17:37;;;;;;;;;;;7.00;99.90;;;;;;5112049;28;19931;-74
2022/01/14 14:20:06;;;;;;;;;;;6.90;99.90;;;;;;5129735;27;19934;-74
2022/01/14 14:22:39;;;;;;;;;;;7.00;99.90;;;;;;5129529;27;20302;-76
2022/01/14 14:25:17;;;;;;;;;;;6.90;99.90;;;;;;5094888;28;19919;-74
2022/01/14 14:27:58;;;;;;;;;;;6.90;99.90;;;;;;5144332;27;19972;-74
2022/01/14 14:30:26;;;;;;;;;;;6.90;99.90;;;;;;5095844;28;19924;-76
2022/01/14 14:32:53;;;;;;;;;;;6.90;99.90;;;;;;5128659;27;19920;-76
2022/01/14 14:35:22;;;;;;;;;;;6.90;99.90;;;;;;5095339;28;19966;-74
2022/01/14 14:37:55;;;;;;;;;;;6.90;99.90;;;;;;5094826;28;19924;-74
2022/01/14 14:40:26;;;;;;;;;;;6.90;99.90;;;;;;5095444;28;19968;-75
2022/01/14 14:42:54;;;;;;;;;;;6.90;99.90;;;;;;5094806;28;20247;-74
2022/01/14 14:45:21;;;;;;;;;;;6.80;99.90;;;;;;5095299;28;19920;-74
2022/01/14 14:47:46;;;;;;;;;;;6.80;99.90;;;;;;5095389;28;20251;-74
2022/01/14 14:50:13;;;;;;;;;;;6.80;99.90;;;;;;5094780;28;19920;-74
2022/01/14 14:52:39;;;;;;;;;;;6.80;99.90;;;;;;5111851;28;19920;-76
2022/01/14 14:55:05;;;;;;;;;;;6.80;99.90;;;;;;5095095;28;19920;-74
2022/01/14 14:57:31;;;;;;;;;;;6.80;99.90;;;;;;5094583;28;19928;-74
2022/01/14 14:59:57;;;;;;;;;;;6.80;99.90;;;;;;5095006;28;20370;-75
2022/01/14 15:02:23;;;;;;;;;;;6.90;99.90;;;;;;5094456;28;19965;-74
2022/01/14 15:04:48;;;;;;;;;;;6.80;99.90;;;;;;5083121;28;19930;-74
2022/01/14 15:07:17;;;;;;;;;;;6.80;99.90;;;;;;5092026;28;20007;-74